createdAt,value
2023-05-22T00:01:21.258Z,16.02
2023-05-22T00:04:10.006Z,15.94
2023-05-22T00:06:58.905Z,15.87
2023-05-22T00:09:47.546Z,15.81
2023-05-22T00:12:36.151Z,15.82
2023-05-22T00:15:26.134Z,15.79
2023-05-22T00:18:14.747Z,15.68
2023-05-22T00:21:03.253Z,15.70
2023-05-22T00:23:51.837Z,15.73
2023-05-22T00:26:40.600Z,15.69
2023-05-22T00:29:29.221Z,15.67
2023-05-22T00:32:19.083Z,15.61
2023-05-22T00:35:08.980Z,15.64
2023-05-22T00:37:57.597Z,15.62
2023-05-22T00:40:46.160Z,15.55
2023-05-22T00:43:35.101Z,15.53
2023-05-22T00:46:24.534Z,15.52
2023-05-22T00:49:14.503Z,15.52
2023-05-22T00:52:03.476Z,15.53
2023-05-22T00:54:53.382Z,15.51
2023-05-22T00:57:42.697Z,15.48
2023-05-22T01:00:34.240Z,15.52
2023-05-22T01:03:26.616Z,15.50
2023-05-22T01:06:18.268Z,15.50
2023-05-22T01:09:06.763Z,15.41
2023-05-22T01:12:00.444Z,15.46
2023-05-22T01:14:56.061Z,15.24
2023-05-22T01:17:49.654Z,15.35
2023-05-22T01:20:40.812Z,15.36
2023-05-22T01:23:54.045Z,15.36
2023-05-22T01:26:55.576Z,15.28
2023-05-22T01:29:49.076Z,14.94
2023-05-22T01:32:39.207Z,15.27
2023-05-22T01:35:29.245Z,15.04
2023-05-22T01:38:18.060Z,15.16
2023-05-22T01:41:07.374Z,15.14
2023-05-22T01:43:55.879Z,15.14
2023-05-22T01:46:45.762Z,15.10
2023-05-22T01:49:36.216Z,14.43
2023-05-22T01:52:30.829Z,15.08
2023-05-22T01:55:21.337Z,14.87
2023-05-22T01:58:14.223Z,14.80
2023-05-22T02:01:03.633Z,14.77
2023-05-22T02:03:56.648Z,14.75
2023-05-22T02:06:47.374Z,14.78
2023-05-22T02:09:36.335Z,14.61
2023-05-22T02:12:25.250Z,14.46
2023-05-22T02:15:14.272Z,14.64
2023-05-22T02:18:03.151Z,14.59
2023-05-22T02:20:51.740Z,14.58
2023-05-22T02:23:41.666Z,14.60
2023-05-22T02:26:30.181Z,14.61
2023-05-22T02:29:18.686Z,14.57
2023-05-22T02:32:07.574Z,14.52
2023-05-22T02:34:56.709Z,14.56
2023-05-22T02:37:45.252Z,14.52
2023-05-22T02:40:35.126Z,14.47
2023-05-22T02:43:23.640Z,14.33
2023-05-22T02:46:12.141Z,14.20
2023-05-22T02:49:00.713Z,14.31
2023-05-22T02:51:49.342Z,14.36
2023-05-22T02:54:37.833Z,14.24
2023-05-22T02:57:27.687Z,14.29
2023-05-22T03:00:17.014Z,14.21
2023-05-22T03:03:05.813Z,14.20
2023-05-22T03:05:58.229Z,14.19
2023-05-22T03:08:48.672Z,14.08
2023-05-22T03:11:37.191Z,14.06
2023-05-22T03:14:27.268Z,13.99
2023-05-22T03:17:15.918Z,13.94
2023-05-22T03:20:05.385Z,13.96
2023-05-22T03:22:53.910Z,14.05
2023-05-22T03:25:42.458Z,13.97
2023-05-22T03:28:31.032Z,13.78
2023-05-22T03:31:20.985Z,13.92
2023-05-22T03:34:09.539Z,13.95
2023-05-22T03:36:58.384Z,13.90
2023-05-22T03:39:46.892Z,13.94
2023-05-22T03:42:35.429Z,13.91
2023-05-22T03:45:24.171Z,13.97
2023-05-22T03:48:14.064Z,13.99
2023-05-22T03:51:02.661Z,13.95
2023-05-22T03:53:51.184Z,14.01
2023-05-22T03:56:39.690Z,13.97
2023-05-22T03:59:28.242Z,13.98
2023-05-22T04:02:17.413Z,14.02
2023-05-22T04:05:09.887Z,13.94
2023-05-22T04:07:58.581Z,13.70
2023-05-22T04:10:48.485Z,13.93
2023-05-22T04:13:36.981Z,13.99
2023-05-22T04:16:25.670Z,13.80
2023-05-22T04:19:14.255Z,14.03
2023-05-22T04:22:04.207Z,14.11
2023-05-22T04:24:52.770Z,14.12
2023-05-22T04:27:41.360Z,14.23
2023-05-22T04:30:29.883Z,14.25
2023-05-22T04:33:18.688Z,14.27
2023-05-22T04:36:12.388Z,14.26
2023-05-22T04:39:04.027Z,14.28
2023-05-22T04:41:52.772Z,14.31
2023-05-22T04:44:41.819Z,14.35
2023-05-22T04:47:31.736Z,14.41
2023-05-22T04:50:20.580Z,14.48
2023-05-22T04:53:09.194Z,14.52
2023-05-22T04:55:59.035Z,14.48
2023-05-22T04:58:48.798Z,14.48
2023-05-22T05:01:38.070Z,14.65
2023-05-22T05:04:26.804Z,14.61
2023-05-22T05:07:18.624Z,14.75
2023-05-22T05:10:07.916Z,14.64
2023-05-22T05:12:57.860Z,15.04
2023-05-22T05:15:46.596Z,14.65
2023-05-22T05:18:35.309Z,14.85
2023-05-22T05:21:27.642Z,15.29
2023-05-22T05:24:16.835Z,15.46
2023-05-22T05:27:05.618Z,15.61
2023-05-22T05:29:56.063Z,15.73
2023-05-22T05:32:44.632Z,15.72
2023-05-22T05:35:33.443Z,15.71
2023-05-22T05:38:21.955Z,15.89
2023-05-22T05:41:10.483Z,16.05
2023-05-22T05:44:01.423Z,16.04
2023-05-22T05:46:52.425Z,14.57
2023-05-22T05:49:40.967Z,16.25
2023-05-22T05:52:32.557Z,16.42
2023-05-22T05:55:21.257Z,16.53
2023-05-22T05:58:10.102Z,16.73
2023-05-22T06:00:58.670Z,16.83
2023-05-22T06:03:48.653Z,17.03
2023-05-22T06:06:37.188Z,17.20
2023-05-22T06:09:25.717Z,17.28
2023-05-22T06:12:14.292Z,17.44
2023-05-22T06:15:04.095Z,17.53
2023-05-22T06:17:52.784Z,17.68
2023-05-22T06:20:43.150Z,17.91
2023-05-22T06:23:32.320Z,18.14
2023-05-22T06:26:21.956Z,18.27
2023-05-22T06:29:10.516Z,18.52
2023-05-22T06:31:59.189Z,18.73
2023-05-22T06:34:49.670Z,18.95
2023-05-22T06:37:39.606Z,19.25
2023-05-22T06:40:28.196Z,19.57
2023-05-22T06:43:16.727Z,19.82
2023-05-22T06:46:05.585Z,20.11
2023-05-22T06:48:54.346Z,20.29
2023-05-22T06:51:43.229Z,20.49
2023-05-22T06:54:33.171Z,20.60
2023-05-22T06:57:24.033Z,20.85
2023-05-22T07:00:14.644Z,21.06
2023-05-22T07:03:03.170Z,21.13
2023-05-22T07:05:51.757Z,21.17
2023-05-22T07:08:40.393Z,21.32
2023-05-22T07:11:30.335Z,21.55
2023-05-22T07:14:18.878Z,21.69
2023-05-22T07:17:07.539Z,21.76
2023-05-22T07:19:56.014Z,21.99
2023-05-22T07:22:44.616Z,22.02
2023-05-22T07:25:33.217Z,22.24
2023-05-22T07:28:23.120Z,22.50
2023-05-22T07:31:11.735Z,22.63
2023-05-22T07:34:00.246Z,22.73
2023-05-22T07:36:48.764Z,22.81
2023-05-22T07:39:37.328Z,23.05
2023-05-22T07:42:27.339Z,23.32
2023-05-22T07:45:17.454Z,23.34
2023-05-22T07:48:06.353Z,23.81
2023-05-22T07:50:55.735Z,23.66
2023-05-22T07:53:45.516Z,23.66
2023-05-22T07:56:34.351Z,23.75
2023-05-22T07:59:23.788Z,23.98
2023-05-22T08:02:14.268Z,24.19
2023-05-22T08:05:04.467Z,24.19
2023-05-22T08:07:53.158Z,24.16
2023-05-22T08:10:58.057Z,24.34
2023-05-22T08:13:50.489Z,24.38
2023-05-22T08:16:39.156Z,24.44
2023-05-22T08:19:29.558Z,24.53
2023-05-22T08:22:18.467Z,24.64
2023-05-22T08:25:07.457Z,24.84
2023-05-22T08:27:55.976Z,24.82
2023-05-22T08:30:44.596Z,24.93
2023-05-22T08:33:33.137Z,25.12
2023-05-22T08:36:24.685Z,25.20
2023-05-22T08:39:14.436Z,25.20
2023-05-22T08:42:04.022Z,25.20
2023-05-22T08:44:52.847Z,25.27
2023-05-22T08:47:42.105Z,25.38
2023-05-22T08:50:30.623Z,25.56
2023-05-22T08:53:23.943Z,25.44
2023-05-22T08:56:12.479Z,25.62
2023-05-22T08:59:01.713Z,25.57
2023-05-22T09:01:52.269Z,25.61
2023-05-22T09:04:42.353Z,25.76
2023-05-22T09:07:30.936Z,25.75
2023-05-22T09:10:20.804Z,25.97
2023-05-22T09:13:11.491Z,26.09
2023-05-22T09:16:01.381Z,26.08
2023-05-22T09:18:50.524Z,25.98
2023-05-22T09:21:39.107Z,26.02
2023-05-22T09:24:27.675Z,26.19
2023-05-22T09:27:17.490Z,26.30
2023-05-22T09:30:07.970Z,26.43
2023-05-22T09:32:59.418Z,26.43
2023-05-22T09:35:48.413Z,26.55
2023-05-22T09:38:36.947Z,26.65
2023-05-22T09:41:26.090Z,26.79
2023-05-22T09:44:16.836Z,26.66
2023-05-22T09:47:07.633Z,26.71
2023-05-22T09:49:58.517Z,26.56
2023-05-22T09:52:47.157Z,26.52
2023-05-22T09:55:36.473Z,26.44
2023-05-22T09:58:27.393Z,26.36
2023-05-22T10:01:18.570Z,26.33
2023-05-22T10:04:07.676Z,25.95
2023-05-22T10:06:57.579Z,26.13
2023-05-22T10:09:48.372Z,26.06
2023-05-22T10:12:41.384Z,26.32
2023-05-22T10:15:30.206Z,26.47
2023-05-22T10:18:20.141Z,26.77
2023-05-22T10:21:08.700Z,27.21
2023-05-22T10:23:58.070Z,27.27
2023-05-22T10:26:46.673Z,27.38
2023-05-22T10:29:39.720Z,26.92
2023-05-22T10:32:34.977Z,26.94
2023-05-22T10:35:29.832Z,27.09
2023-05-22T10:38:35.842Z,27.43
2023-05-22T10:41:24.912Z,27.53
2023-05-22T10:44:13.529Z,27.76
2023-05-22T10:47:10.329Z,27.63
2023-05-22T10:50:06.295Z,27.85
2023-05-22T10:53:19.987Z,28.05
2023-05-22T10:56:13.043Z,28.23
2023-05-22T10:59:04.899Z,28.29
2023-05-22T11:02:02.002Z,28.35
2023-05-22T11:04:50.854Z,28.37
2023-05-22T11:07:41.428Z,28.52
2023-05-22T11:10:53.249Z,28.65
2023-05-22T11:13:43.572Z,28.64
2023-05-22T11:16:33.427Z,28.65
2023-05-22T11:19:24.017Z,28.69
2023-05-22T11:22:13.933Z,28.90
2023-05-22T11:25:06.579Z,29.10
2023-05-22T11:27:57.075Z,28.86
2023-05-22T11:30:45.776Z,29.01
2023-05-22T11:33:34.605Z,29.06
2023-05-22T11:36:23.665Z,29.14
2023-05-22T11:39:15.895Z,29.16
2023-05-22T11:42:05.122Z,29.28
2023-05-22T11:44:54.972Z,29.25
2023-05-22T11:47:44.577Z,29.38
2023-05-22T11:50:41.841Z,29.50
2023-05-22T11:53:32.872Z,29.48
2023-05-22T11:56:23.174Z,29.77
2023-05-22T11:59:11.736Z,29.86
2023-05-22T12:02:01.633Z,30.03
2023-05-22T12:04:55.227Z,30.11
2023-05-22T12:07:43.910Z,30.15
2023-05-22T12:10:32.565Z,30.21
2023-05-22T12:13:25.919Z,30.18
2023-05-22T12:16:22.745Z,30.07
2023-05-22T12:19:13.171Z,30.00
2023-05-22T12:22:01.901Z,30.39
2023-05-22T12:24:53.260Z,30.36
2023-05-22T12:27:41.814Z,30.29
2023-05-22T12:30:40.991Z,29.93
2023-05-22T12:33:30.022Z,29.64
2023-05-22T12:36:19.866Z,29.46
2023-05-22T12:39:10.319Z,29.14
2023-05-22T12:41:59.361Z,29.14
2023-05-22T12:44:47.869Z,29.12
2023-05-22T12:47:36.399Z,29.32
2023-05-22T12:50:24.993Z,29.65
2023-05-22T12:53:15.077Z,29.45
2023-05-22T12:56:04.126Z,29.43
2023-05-22T12:58:52.708Z,29.66
2023-05-22T13:01:41.305Z,29.85
2023-05-22T13:04:30.512Z,29.76
2023-05-22T13:07:19.105Z,30.31
2023-05-22T13:10:10.249Z,30.51
2023-05-22T13:12:58.789Z,30.28
2023-05-22T13:15:47.393Z,29.91
2023-05-22T13:18:35.912Z,29.65
2023-05-22T13:21:26.451Z,29.44
2023-05-22T13:24:15.421Z,29.40
2023-05-22T13:27:05.905Z,29.40
2023-05-22T13:29:54.442Z,29.49
2023-05-22T13:32:43.016Z,29.60
2023-05-22T13:35:31.977Z,29.59
2023-05-22T13:38:20.880Z,29.68
2023-05-22T13:41:09.438Z,29.82
2023-05-22T13:43:59.352Z,30.30
2023-05-22T13:46:48.133Z,30.50
2023-05-22T13:49:36.864Z,30.78
2023-05-22T13:52:25.383Z,30.94
2023-05-22T13:55:14.001Z,30.90
2023-05-22T13:58:02.643Z,31.06
2023-05-22T14:00:52.681Z,31.17
2023-05-22T14:03:41.346Z,31.00
2023-05-22T14:06:29.956Z,30.70
2023-05-22T14:09:18.903Z,30.24
2023-05-22T14:12:08.218Z,30.11
2023-05-22T14:14:56.922Z,29.83
2023-05-22T14:17:47.802Z,29.82
2023-05-22T14:20:36.408Z,30.17
2023-05-22T14:23:25.122Z,30.45
2023-05-22T14:26:14.626Z,30.47
2023-05-22T14:29:10.504Z,30.51
2023-05-22T14:32:04.102Z,30.37
2023-05-22T14:34:54.679Z,30.58
2023-05-22T14:37:43.214Z,30.45
2023-05-22T14:40:31.746Z,30.57
2023-05-22T14:43:20.290Z,30.39
2023-05-22T14:46:09.109Z,30.31
2023-05-22T14:48:57.762Z,30.48
2023-05-22T14:51:48.364Z,30.52
2023-05-22T14:54:36.961Z,30.53
2023-05-22T14:57:25.725Z,30.58
2023-05-22T15:00:15.251Z,30.44
2023-05-22T15:03:03.834Z,30.51
2023-05-22T15:05:52.482Z,30.46
2023-05-22T15:08:42.377Z,30.54
2023-05-22T15:11:31.041Z,30.61
2023-05-22T15:14:21.489Z,30.61
2023-05-22T15:17:10.025Z,30.60
2023-05-22T15:19:58.596Z,30.46
2023-05-22T15:22:47.097Z,30.34
2023-05-22T15:25:37.264Z,30.26
2023-05-22T15:28:26.282Z,30.28
2023-05-22T15:31:15.016Z,30.19
2023-05-22T15:34:03.559Z,29.97
2023-05-22T15:36:52.056Z,29.86
2023-05-22T15:39:40.595Z,29.66
2023-05-22T15:42:30.785Z,29.54
2023-05-22T15:45:19.312Z,29.07
2023-05-22T15:48:08.441Z,28.80
2023-05-22T15:50:56.979Z,28.31
2023-05-22T15:53:45.554Z,28.07
2023-05-22T15:56:34.173Z,27.99
2023-05-22T15:59:24.045Z,27.79
2023-05-22T16:02:12.640Z,27.79
2023-05-22T16:05:01.226Z,27.61
2023-05-22T16:07:49.813Z,27.34
2023-05-22T16:10:41.485Z,27.12
2023-05-22T16:13:30.004Z,26.85
2023-05-22T16:16:20.009Z,26.68
2023-05-22T16:19:08.614Z,26.58
2023-05-22T16:21:57.193Z,26.50
2023-05-22T16:24:45.690Z,26.39
2023-05-22T16:27:34.212Z,26.39
2023-05-22T16:30:22.880Z,26.26
2023-05-22T16:33:12.834Z,26.20
2023-05-22T16:36:01.435Z,26.10
2023-05-22T16:38:49.958Z,25.90
2023-05-22T16:41:38.504Z,25.91
2023-05-22T16:44:27.706Z,25.65
2023-05-22T16:47:16.326Z,25.34
2023-05-22T16:50:07.825Z,25.00
2023-05-22T16:52:56.382Z,24.85
2023-05-22T16:55:45.031Z,24.71
2023-05-22T16:58:34.024Z,24.45
2023-05-22T17:01:22.873Z,24.28
2023-05-22T17:04:14.731Z,24.26
2023-05-22T17:07:05.144Z,24.13
2023-05-22T17:09:53.663Z,24.00
2023-05-22T17:12:42.235Z,23.88
2023-05-22T17:15:30.717Z,23.73
2023-05-22T17:18:20.940Z,23.65
2023-05-22T17:21:09.933Z,23.55
2023-05-22T17:23:59.888Z,23.41
2023-05-22T17:26:49.039Z,23.17
2023-05-22T17:29:37.706Z,23.01
2023-05-22T17:32:26.571Z,22.14
2023-05-22T17:35:15.212Z,22.42
2023-05-22T17:38:03.763Z,22.50
2023-05-22T17:40:53.712Z,22.49
2023-05-22T17:43:42.473Z,22.47
2023-05-22T17:46:31.024Z,22.55
2023-05-22T17:49:19.722Z,22.41
2023-05-22T17:52:08.635Z,22.27
2023-05-22T17:54:57.305Z,22.31
2023-05-22T17:57:47.257Z,22.35
2023-05-22T18:00:35.767Z,22.31
2023-05-22T18:03:24.415Z,22.36
2023-05-22T18:06:13.273Z,22.25
2023-05-22T18:09:04.470Z,22.32
2023-05-22T18:11:53.494Z,22.40
2023-05-22T18:14:43.324Z,22.40
2023-05-22T18:17:32.515Z,22.32
2023-05-22T18:20:21.213Z,22.26
2023-05-22T18:23:09.761Z,22.16
2023-05-22T18:25:58.299Z,22.10
2023-05-22T18:28:48.320Z,22.09
2023-05-22T18:31:38.266Z,22.11
2023-05-22T18:34:26.821Z,22.04
2023-05-22T18:37:16.279Z,22.01
2023-05-22T18:40:06.470Z,22.09
2023-05-22T18:42:55.242Z,21.99
2023-05-22T18:45:43.968Z,21.94
2023-05-22T18:48:33.874Z,21.94
2023-05-22T18:51:22.837Z,21.95
2023-05-22T18:54:11.394Z,21.84
2023-05-22T18:57:00.097Z,21.98
2023-05-22T18:59:48.818Z,21.70
2023-05-22T19:02:37.418Z,21.78
2023-05-22T19:05:27.601Z,21.72
2023-05-22T19:08:16.287Z,21.63
2023-05-22T19:11:04.882Z,21.56
2023-05-22T19:13:53.391Z,21.45
2023-05-22T19:16:43.926Z,21.44
2023-05-22T19:19:32.868Z,21.46
2023-05-22T19:22:24.129Z,21.36
2023-05-22T19:25:12.706Z,21.49
2023-05-22T19:28:01.282Z,21.46
2023-05-22T19:30:49.868Z,21.41
2023-05-22T19:33:38.691Z,21.40
2023-05-22T19:36:27.231Z,21.37
2023-05-22T19:39:17.081Z,21.32
2023-05-22T19:42:08.171Z,21.10
2023-05-22T19:44:57.136Z,20.91
2023-05-22T19:47:45.835Z,20.90
2023-05-22T19:50:35.400Z,20.73
2023-05-22T19:53:24.057Z,20.48
2023-05-22T19:56:13.992Z,20.50
2023-05-22T19:59:03.059Z,20.45
2023-05-22T20:01:53.774Z,20.13
2023-05-22T20:04:43.913Z,20.37
2023-05-22T20:07:32.488Z,20.18
2023-05-22T20:10:21.712Z,20.13
2023-05-22T20:13:11.649Z,20.10
2023-05-22T20:16:03.498Z,20.00
2023-05-22T20:18:54.034Z,19.98
2023-05-22T20:21:42.615Z,19.72
2023-05-22T20:24:31.966Z,19.95
2023-05-22T20:27:21.102Z,19.94
2023-05-22T20:30:12.632Z,19.92
2023-05-22T20:33:01.361Z,19.86
2023-05-22T20:35:52.837Z,19.45
2023-05-22T20:38:43.845Z,19.81
2023-05-22T20:41:32.683Z,19.72
2023-05-22T20:44:23.508Z,19.68
2023-05-22T20:47:13.698Z,19.62
2023-05-22T20:50:02.252Z,19.59
2023-05-22T20:52:51.133Z,19.54
2023-05-22T20:55:39.928Z,19.48
2023-05-22T20:58:28.570Z,19.40
2023-05-22T21:01:17.161Z,19.31
2023-05-22T21:04:07.128Z,19.19
2023-05-22T21:06:55.747Z,19.09
2023-05-22T21:09:44.242Z,19.01
2023-05-22T21:12:32.775Z,18.96
2023-05-22T21:15:21.440Z,18.90
2023-05-22T21:18:09.979Z,18.79
2023-05-22T21:20:59.883Z,18.76
2023-05-22T21:23:49.762Z,18.70
2023-05-22T21:26:38.412Z,18.64
2023-05-22T21:29:27.215Z,18.53
2023-05-22T21:32:15.872Z,18.56
2023-05-22T21:35:04.543Z,18.53
2023-05-22T21:37:54.668Z,17.77
2023-05-22T21:40:43.216Z,18.44
2023-05-22T21:43:31.728Z,18.37
2023-05-22T21:46:23.210Z,17.96
2023-05-22T21:49:11.762Z,18.31
2023-05-22T21:52:00.269Z,18.25
2023-05-22T21:54:50.155Z,18.13
2023-05-22T21:57:38.934Z,18.13
2023-05-22T22:00:28.503Z,18.13
2023-05-22T22:03:17.594Z,18.11
2023-05-22T22:06:06.582Z,18.05
2023-05-22T22:08:55.848Z,18.02
2023-05-22T22:11:45.773Z,18.03
2023-05-22T22:14:34.287Z,17.93
2023-05-22T22:17:23.440Z,17.86
2023-05-22T22:20:12.755Z,17.87
2023-05-22T22:23:01.708Z,17.83
2023-05-22T22:25:50.300Z,17.89
2023-05-22T22:28:40.259Z,17.81
2023-05-22T22:31:28.942Z,17.77
2023-05-22T22:34:17.468Z,17.79
2023-05-22T22:37:06.813Z,17.77
2023-05-22T22:39:55.272Z,17.77
2023-05-22T22:42:43.800Z,17.77
2023-05-22T22:45:33.602Z,17.68
2023-05-22T22:48:22.777Z,17.68
2023-05-22T22:51:11.613Z,17.73
2023-05-22T22:54:00.148Z,17.79
2023-05-22T22:56:49.750Z,17.85
2023-05-22T22:59:38.585Z,17.77
2023-05-22T23:02:28.671Z,17.75
2023-05-22T23:05:20.360Z,17.73
2023-05-22T23:08:09.174Z,17.72
2023-05-22T23:10:57.890Z,17.71
2023-05-22T23:13:46.382Z,17.66
2023-05-22T23:16:36.903Z,17.62
2023-05-22T23:19:27.476Z,17.65
2023-05-22T23:22:16.390Z,17.64
2023-05-22T23:25:05.583Z,17.58
2023-05-22T23:27:54.069Z,17.68
2023-05-22T23:30:42.645Z,17.67
2023-05-22T23:33:31.138Z,17.72
2023-05-22T23:36:21.031Z,17.64
2023-05-22T23:39:09.664Z,17.68
2023-05-22T23:42:02.206Z,17.67
2023-05-22T23:44:50.750Z,17.69
2023-05-22T23:47:39.250Z,17.69
2023-05-22T23:50:27.750Z,17.70
2023-05-22T23:53:17.644Z,17.74
2023-05-22T23:56:06.571Z,17.70
2023-05-22T23:58:55.071Z,17.76
